Flight Track Log - Related Links

Times and Time Zones

All times are in EDT time to prevent confusion due to time zone crossing. See the RPA3161 flight status page for this flight to view local times or setup timezone preferences in your user account.

Time Position Orientation Groundspeed Altitude Reporting Facility
EDT Latitude Longitude Course Direction KTS MPH feet Rate Location/Type
Fri 12:54:00 PM 44.1842 -73.2560 195° South  Level FlightAware
Fri 12:54:52 PM 44.5472 -73.3692 198° South 249 287 7,200  Level Boston Center
Fri 12:55:00 PM 44.0895 -73.2915 195° South  Level FlightAware
Fri 12:55:52 PM 44.4822 -73.4119 205° Southwest 210 242 10,200  Level Boston Center
Fri 12:56:00 PM 43.9942 -73.3242 194° South  Level FlightAware
Fri 12:56:52 PM 44.4028 -73.4308 190° South 243 280 11,600  Level Boston Center
Fri 12:57:00 PM 43.8990 -73.3567 195° South  Level FlightAware
Fri 12:57:52 PM 44.3006 -73.4525 189° South 319 367 13,900  Level Boston Center
Fri 12:58:00 PM 43.8043 -73.3923 195° South  Level FlightAware
Fri 12:58:52 PM 44.2047 -73.4739 189° South 352 405 15,600  Level Boston Center
Fri 12:59:00 PM 43.7096 -73.4277 195° South  Level FlightAware
Fri 12:59:52 PM 44.1044 -73.4983 190° South 370 426 17,500  Level Boston Center
Fri 01:00:00 PM 43.6155 -73.4657 198° South  Level FlightAware
Fri 01:00:52 PM 44.0000 -73.5222 189° South 375 432 18,700  Level Boston Center
Fri 01:01:52 PM 43.8933 -73.5492 190° South 388 447 20,100 1,318 Climbing Boston Center
Fri 01:03:04 PM 43.7847 -73.5731 189° South 393 452 21,600 1,409 Climbing Boston Center
Fri 01:04:04 PM 43.6594 -73.5994 189° South 401 461 23,200 1,450 Climbing Boston Center
Fri 01:05:04 PM 43.5467 -73.6258 190° South 411 473 24,500 1,150 Climbing Boston Center
Fri 01:06:04 PM 43.4319 -73.6522 189° South 411 473 25,500 1,050 Climbing Boston Center
Fri 01:07:04 PM 43.3147 -73.6786 189° South 422 486 26,600 1,150 Climbing Boston Center
Fri 01:08:04 PM 43.1958 -73.7075 190° South 430 495 27,800 1,300 Climbing Boston Center
Fri 01:09:04 PM 43.0578 -73.7386 189° South 446 513 29,200 1,700 Climbing Boston Center
Fri 01:10:04 PM 42.9386 -73.7644 189° South 446 513 31,200 1,400 Climbing Boston Center
Fri 01:11:04 PM 42.8239 -73.7875 188° South 441 507 32,000 400 Climbing Boston Center
Fri 01:12:04 PM 42.7008 -73.7989 184° South 441 507 32,000  Level Boston Center
Fri 01:13:04 PM 42.5781 -73.7822 174° South 446 513 32,000  Level Boston Center
Fri 01:14:04 PM 42.4531 -73.7625 173° South 446 513 32,000  Level Boston Center
Fri 01:15:04 PM 42.3261 -73.7458 174° South 446 513 32,000  Level Boston Center
Fri 01:16:04 PM 42.2036 -73.7236 172° South 451 519 32,000  Level Boston Center
Fri 01:17:04 PM 42.0786 -73.7044 174° South 451 519 32,000  Level Boston Center
Fri 01:18:04 PM 41.9642 -73.6853 173° South 461 531 32,000 -550 Level Boston Center
Fri 01:19:04 PM 41.8394 -73.6689 174° South 461 531 30,900 -1,000 Descending Boston Center
Fri 01:20:04 PM 41.7144 -73.6497 173° South 461 531 30,000 -450 Descending Boston Center
Fri 01:21:04 PM 41.5875 -73.6308 174° South 461 531 30,000  Level Boston Center
Fri 01:21:52 PM 41.4769 -73.6233 177° South 459 528 30,000  Level New Center
Fri 01:22:53 PM 41.3633 -73.6792 200° South 432 497 30,000  Level New Center
Fri 01:23:53 PM 41.2631 -73.7658 213° Southwest 437 503 30,000  Level New Center
Fri 01:24:53 PM 41.1789 -73.8806 226° Southwest 430 495 30,000  Level New Center
Fri 01:25:54 PM 41.0989 -73.9897 226° Southwest 425 489 30,000  Level New Center
Fri 01:26:54 PM 41.0167 -74.1042 226° Southwest 425 489 30,000 -305 Level New Center
Fri 01:27:52 PM 40.9389 -74.2019 224° Southwest 432 497 29,400 -966 Descending New Center
Fri 01:28:52 PM 40.8522 -74.3156 225° Southwest 439 505 28,100 -694 Descending New Center
Fri 01:29:53 PM 40.7717 -74.4319 228° Southwest 439 505 28,000 -50 Descending New Center
Fri 01:30:53 PM 40.6989 -74.5511 231° Southwest 434 499 28,000  Level New Center
Fri 01:31:54 PM 40.6264 -74.6728 232° Southwest 429 494 28,000  Level New Center
Fri 01:32:52 PM 40.5494 -74.7914 230° Southwest 434 499 28,000  Level New Center
Fri 01:33:52 PM 40.4683 -74.9067 227° Southwest 434 499 28,000  Level New Center
Fri 01:34:52 PM 40.3872 -75.0192 227° Southwest 434 499 28,000 -750 Level New Center
Fri 01:35:52 PM 40.3081 -75.1339 228° Southwest 429 494 26,500 -1,835 Descending New Center
Fri 01:36:53 PM 40.2286 -75.2458 227° Southwest 429 494 24,300 -2,132 Descending New Center
Fri 01:37:53 PM 40.1539 -75.3497 227° Southwest 418 481 22,200 -1,150 Descending New Center
Fri 01:38:53 PM 40.0789 -75.4558 227° Southwest 413 475 22,000 -100 Descending New Center
Fri 01:39:53 PM 40.0061 -75.5567 227° Southwest 402 463 22,000  Level New Center
Fri 01:40:53 PM 39.9289 -75.6597 226° Southwest 397 457 22,000  Level New Center
Fri 01:41:52 PM 39.8678 -75.7744 235° Southwest 397 457 22,000  Level New Center
Fri 01:42:52 PM 39.8086 -75.8892 236° Southwest 397 457 22,000 -744 Level New Center
Fri 01:43:53 PM 39.7494 -75.9983 235° Southwest 385 443 20,500 -1,736 Descending New Center
Fri 01:44:53 PM 39.6972 -76.0944 235° Southwest 331 381 18,500 -1,700 Descending New Center
Fri 01:45:53 PM 39.6472 -76.1850 234° Southwest 306 352 17,100 -1,462 Descending New Center
Fri 01:46:52 PM 39.6036 -76.2731 237° Southwest 301 346 15,600 -1,550 Descending New Center
Fri 01:47:53 PM 39.5422 -76.3383 219° Southwest 296 341 14,000 -1,630 Descending New Center
Fri 01:48:13 PM 39.5167 -76.3667 221° Southwest 293 337 13,400 -1,622 Descending Potomac TRACON
Fri 01:49:07 PM 39.4500 -76.4167 210° Southwest 288 331 12,000 -730 Descending Potomac TRACON
Fri 01:50:08 PM 39.3833 -76.4667 210° Southwest 282 325 12,000  Level Potomac TRACON
Fri 01:51:08 PM 39.3167 -76.5333 218° Southwest 283 326 12,000 -350 Level Potomac TRACON
Fri 01:52:08 PM 39.2500 -76.5833 210° Southwest 286 329 11,300 -850 Descending Potomac TRACON
Fri 01:53:08 PM 39.2000 -76.6500 226° Southwest 281 323 10,300 -645 Descending Potomac TRACON
Fri 01:54:09 PM 39.1333 -76.7000 210° Southwest 271 312 10,000 -446 Descending Potomac TRACON
Fri 01:55:09 PM 39.0833 -76.7667 226° Southwest 271 312 9,400 -1,300 Descending Potomac TRACON
Fri 01:56:09 PM 39.0167 -76.8333 218° Southwest 270 311 7,400 -1,789 Descending Potomac TRACON
Fri 01:57:03 PM 38.9833 -76.8833 229° Southwest 267 307 6,000 -730 Descending Potomac TRACON
Fri 01:58:04 PM 38.9167 -76.9333 210° Southwest 228 262 6,000 -99 Level Potomac TRACON
Fri 01:59:04 PM 38.8667 -76.9500 195° South 230 265 5,800 -450 Descending Potomac TRACON
Fri 02:00:04 PM 38.8000 -76.9500 180° South 228 262 5,100 -843 Descending Potomac TRACON
Fri 02:01:05 PM 38.7333 -76.9333 169° South 220 253 4,100 -1,190 Descending Potomac TRACON
Fri 02:02:10 PM 38.7000 -77.0000 237° Southwest 203 234 2,600 -952 Descending Potomac TRACON
Fri 02:03:11 PM 38.7167 -77.0333 303° West 177 204 2,100 -492 Descending Potomac TRACON

Login

Don't have an account? Register now (free) for customized features, flight alerts, and more!